Terminal Aerodrome Forecast
Issued by NWS Los Angeles, CA

Home | Current Version | Previous Version | Text Only | Print | Product List | Glossary On
Versions: 1 2 3 4 5 6 7 8 9 10 11 12 13 14 15 16 17 18 19 20 21 22 23 24 25 26
000
FTUS46 KLOX 282300
TAFSMX
TAF
KSMX 282333Z 2900/2924 31012KT P6SM BKN150
     FM290400 VRB03KT P6SM SCT150
     FM290800 VRB03KT 5SM BR BKN005
     FM291100 VRB03KT 1SM BR OVC002
     FM291400 VRB03KT 4SM BR BKN007
     FM291700 28005KT P6SM SKC
     FM292000 30012KT P6SM SKC=

USA.gov is the U.S. government's official web portal to all federal, state and local government web resources and services.